createdAt,value
2018-05-27T00:00:06.571Z,15.07
2018-05-27T00:02:34.046Z,14.60
2018-05-27T00:05:02.250Z,15.63
2018-05-27T00:07:30.472Z,14.67
2018-05-27T00:09:57.918Z,13.30
2018-05-27T00:12:25.709Z,13.70
2018-05-27T00:14:53.169Z,13.70
2018-05-27T00:17:20.611Z,14.03
2018-05-27T00:19:48.060Z,13.63
2018-05-27T00:22:15.500Z,13.67
2018-05-27T00:24:44.038Z,12.37
2018-05-27T00:27:11.901Z,13.47
2018-05-27T00:29:39.356Z,13.33
2018-05-27T00:32:06.923Z,13.57
2018-05-27T00:34:34.378Z,14.20
2018-05-27T00:37:02.428Z,13.33
2018-05-27T00:39:30.645Z,16.00
2018-05-27T00:41:58.096Z,16.10
2018-05-27T00:44:25.551Z,15.87
2018-05-27T00:46:52.999Z,14.80
2018-05-27T00:49:20.451Z,14.53
2018-05-27T00:51:48.661Z,14.83
2018-05-27T00:54:16.105Z,13.83
2018-05-27T00:56:43.604Z,14.53
2018-05-27T00:59:11.045Z,13.67
2018-05-27T01:01:38.499Z,13.60
2018-05-27T01:04:05.958Z,14.67
2018-05-27T01:06:33.410Z,13.67
2018-05-27T01:09:00.882Z,13.60
2018-05-27T01:11:28.317Z,13.60
2018-05-27T01:13:55.781Z,12.23
2018-05-27T01:16:23.220Z,12.27
2018-05-27T01:18:51.432Z,13.63
2018-05-27T01:21:18.884Z,12.27
2018-05-27T01:23:46.334Z,13.37
2018-05-27T01:26:13.812Z,13.17
2018-05-27T01:28:41.283Z,15.73
2018-05-27T01:31:08.709Z,12.00
2018-05-27T01:33:36.937Z,11.27
2018-05-27T01:36:04.395Z,12.63
2018-05-27T01:38:31.853Z,12.87
2018-05-27T01:40:59.301Z,13.33
2018-05-27T01:43:26.760Z,16.43
2018-05-27T01:45:54.984Z,13.60
2018-05-27T01:48:22.431Z,12.10
2018-05-27T01:50:49.897Z,12.40
2018-05-27T01:53:17.341Z,12.77
2018-05-27T01:55:44.839Z,11.97
2018-05-27T01:58:13.080Z,12.37
2018-05-27T02:00:40.640Z,12.53
2018-05-27T02:03:08.081Z,12.50
2018-05-27T02:05:35.529Z,12.47
2018-05-27T02:08:02.976Z,13.80
2018-05-27T02:10:30.426Z,13.47
2018-05-27T02:12:58.643Z,13.50
2018-05-27T02:15:26.075Z,13.00
2018-05-27T02:17:53.548Z,13.37
2018-05-27T02:20:21.020Z,14.23
2018-05-27T02:22:48.482Z,14.00
2018-05-27T02:25:15.942Z,13.20
2018-05-27T02:27:43.375Z,13.17
2018-05-27T02:30:11.597Z,13.63
2018-05-27T02:32:39.060Z,13.70
2018-05-27T02:35:06.505Z,14.57
2018-05-27T02:37:34.292Z,13.87
2018-05-27T02:40:01.720Z,12.83
2018-05-27T02:42:29.160Z,13.77
2018-05-27T02:44:57.377Z,14.63
2018-05-27T02:47:24.829Z,14.70
2018-05-27T02:49:52.272Z,13.47
2018-05-27T02:52:19.727Z,13.43
2018-05-27T02:54:47.954Z,13.73
2018-05-27T02:57:16.176Z,12.47
2018-05-27T02:59:44.399Z,13.40
2018-05-27T03:02:11.851Z,13.43
2018-05-27T03:04:39.307Z,13.17
2018-05-27T03:07:06.770Z,13.40
2018-05-27T03:09:34.214Z,14.47
2018-05-27T03:12:01.670Z,13.07
2018-05-27T03:14:29.127Z,13.50
2018-05-27T03:16:57.332Z,15.30
2018-05-27T03:19:24.788Z,14.67
2018-05-27T03:21:52.264Z,14.87
2018-05-27T03:24:19.718Z,14.83
2018-05-27T03:26:47.176Z,15.07
2018-05-27T03:29:14.623Z,16.43
2018-05-27T03:31:42.085Z,16.57
2018-05-27T03:34:09.548Z,15.30
2018-05-27T03:36:37.000Z,15.13
2018-05-27T03:39:04.463Z,15.27
2018-05-27T03:41:32.607Z,15.90
2018-05-27T03:44:00.829Z,15.17
2018-05-27T03:46:28.284Z,15.00
2018-05-27T03:48:55.727Z,14.37
2018-05-27T03:51:23.955Z,14.53
2018-05-27T03:53:51.395Z,14.67
2018-05-27T03:56:18.842Z,14.80
2018-05-27T03:58:46.636Z,14.70
2018-05-27T04:01:14.086Z,14.13
2018-05-27T04:03:41.538Z,13.10
2018-05-27T04:06:20.801Z,15.63
2018-05-27T04:08:48.250Z,14.30
2018-05-27T04:11:15.737Z,15.37
2018-05-27T04:13:43.178Z,16.87
2018-05-27T04:16:10.629Z,14.47
2018-05-27T04:18:38.104Z,14.27
2018-05-27T04:21:05.534Z,14.30
2018-05-27T04:23:32.966Z,15.63
2018-05-27T04:26:01.184Z,16.47
2018-05-27T04:28:28.668Z,17.57
2018-05-27T04:30:56.104Z,16.43
2018-05-27T04:33:23.788Z,17.27
2018-05-27T04:35:52.003Z,14.17
2018-05-27T04:38:20.224Z,15.37
2018-05-27T04:40:47.672Z,15.67
2018-05-27T04:43:15.127Z,13.63
2018-05-27T04:45:42.573Z,15.50
2018-05-27T04:48:10.777Z,14.73
2018-05-27T04:50:38.235Z,12.43
2018-05-27T04:53:05.680Z,13.83
2018-05-27T04:55:33.376Z,12.57
2018-05-27T04:58:00.847Z,13.07
2018-05-27T05:00:28.291Z,11.60
2018-05-27T05:02:55.745Z,13.90
2018-05-27T05:05:23.225Z,12.57
2018-05-27T05:07:50.670Z,13.17
2018-05-27T05:10:18.123Z,12.17
2018-05-27T05:12:45.581Z,13.00
2018-05-27T05:15:13.048Z,12.50
2018-05-27T05:27:41.581Z,11.60
2018-05-27T05:30:09.000Z,11.50
2018-05-27T05:32:36.894Z,12.67
2018-05-27T05:35:04.409Z,11.93
2018-05-27T05:37:31.871Z,11.50
2018-05-27T05:40:00.171Z,11.53
2018-05-27T05:42:28.027Z,12.17
2018-05-27T05:44:55.563Z,11.63
2018-05-27T05:47:23.015Z,11.93
2018-05-27T05:49:51.578Z,11.03
2018-05-27T05:52:19.010Z,12.00
2018-05-27T05:54:46.449Z,12.27
2018-05-27T05:57:13.900Z,10.63
2018-05-27T05:59:41.559Z,11.70
2018-05-27T06:02:09.981Z,11.93
2018-05-27T06:04:38.536Z,11.73
2018-05-27T06:07:06.060Z,11.70
2018-05-27T06:09:33.544Z,11.10
2018-05-27T06:12:02.430Z,12.03
2018-05-27T06:14:30.662Z,11.67
2018-05-27T06:16:58.104Z,12.37
2018-05-27T06:19:25.889Z,12.47
2018-05-27T06:21:53.335Z,12.43
2018-05-27T06:24:20.791Z,12.87
2018-05-27T06:26:48.285Z,12.43
2018-05-27T06:29:15.771Z,12.30
2018-05-27T06:31:43.217Z,12.77
2018-05-27T06:34:10.880Z,13.00
2018-05-27T06:36:38.312Z,12.60
2018-05-27T06:39:05.757Z,12.87
2018-05-27T06:41:33.212Z,12.37
2018-05-27T06:44:00.657Z,13.40
2018-05-27T06:46:28.871Z,12.13
2018-05-27T06:48:56.327Z,13.33
2018-05-27T06:51:23.772Z,13.17
2018-05-27T06:53:51.575Z,12.90
2018-05-27T06:56:19.015Z,11.23
2018-05-27T06:58:47.349Z,11.80
2018-05-27T07:01:15.313Z,11.40
2018-05-27T07:03:42.752Z,10.87
2018-05-27T07:06:10.196Z,10.17
2018-05-27T07:08:37.645Z,10.50
2018-05-27T07:11:05.171Z,11.50
2018-05-27T07:13:33.638Z,11.80
2018-05-27T07:16:01.141Z,11.07
2018-05-27T07:18:28.604Z,10.67
2018-05-27T07:20:56.045Z,10.03
2018-05-27T07:23:25.793Z,10.07
2018-05-27T07:25:53.220Z,10.20
2018-05-27T07:28:21.465Z,10.53
2018-05-27T07:30:49.616Z,10.10
2018-05-27T07:33:17.914Z,9.57
2018-05-27T07:35:45.673Z,9.93
2018-05-27T07:38:13.118Z,10.33
2018-05-27T07:40:40.567Z,9.20
2018-05-27T07:43:08.008Z,9.40
2018-05-27T07:45:36.230Z,9.50
2018-05-27T07:48:03.669Z,7.32
2018-05-27T07:50:31.107Z,6.62
2018-05-27T07:52:59.313Z,8.05
2018-05-27T07:55:26.916Z,7.30
2018-05-27T07:57:54.396Z,6.30
2018-05-27T08:00:21.825Z,7.03
2018-05-27T08:02:50.292Z,7.18
2018-05-27T08:05:17.732Z,7.03
2018-05-27T08:07:45.192Z,7.55
2018-05-27T08:10:12.992Z,7.20
2018-05-27T08:12:40.976Z,7.32
2018-05-27T08:15:08.408Z,6.97
2018-05-27T08:17:35.862Z,7.25
2018-05-27T08:20:03.318Z,7.07
2018-05-27T08:22:30.754Z,6.68
2018-05-27T08:24:58.969Z,6.72
2018-05-27T08:27:26.413Z,7.28
2018-05-27T08:29:53.845Z,6.97
2018-05-27T08:32:22.054Z,7.93
2018-05-27T08:34:50.671Z,6.05
2018-05-27T08:37:18.100Z,6.78
2018-05-27T08:39:45.541Z,6.78
2018-05-27T08:42:13.755Z,6.80
2018-05-27T08:44:41.203Z,8.25
2018-05-27T08:47:08.660Z,7.30
2018-05-27T08:49:37.192Z,7.50
2018-05-27T08:52:05.104Z,6.97
2018-05-27T08:56:02.910Z,7.60
2018-05-27T08:58:30.483Z,7.40
2018-05-27T09:00:57.931Z,7.22
2018-05-27T09:05:45.280Z,6.90
2018-05-27T09:08:12.737Z,8.18
2018-05-27T09:10:41.578Z,6.78
2018-05-27T09:13:09.019Z,7.25
2018-05-27T09:15:36.460Z,7.47
2018-05-27T09:18:04.166Z,7.12
2018-05-27T09:20:31.596Z,6.43
2018-05-27T09:22:59.058Z,6.10
2018-05-27T09:25:26.513Z,5.35
2018-05-27T09:27:53.957Z,5.55
2018-05-27T09:30:21.414Z,5.65
2018-05-27T09:32:48.861Z,5.62
2018-05-27T09:35:16.630Z,6.80
2018-05-27T09:37:44.058Z,6.40
2018-05-27T09:40:11.517Z,6.35
2018-05-27T09:42:38.967Z,6.07
2018-05-27T09:45:06.454Z,5.45
2018-05-27T09:47:33.910Z,5.62
2018-05-27T09:50:01.347Z,5.82
2018-05-27T09:52:28.793Z,5.10
2018-05-27T09:54:56.241Z,5.93
2018-05-27T09:57:23.727Z,5.78
2018-05-27T09:59:53.015Z,5.00
2018-05-27T10:02:20.434Z,5.78
2018-05-27T10:04:47.889Z,5.30
2018-05-27T10:07:16.141Z,5.20
2018-05-27T10:09:43.624Z,4.40
2018-05-27T10:12:11.832Z,4.80
2018-05-27T10:14:39.275Z,4.35
2018-05-27T10:17:07.492Z,4.37
2018-05-27T10:19:34.923Z,4.45
2018-05-27T10:22:02.396Z,4.72
2018-05-27T10:24:30.661Z,4.75
2018-05-27T10:26:58.108Z,4.55
2018-05-27T10:32:00.158Z,5.05
2018-05-27T10:34:27.731Z,4.50
2018-05-27T10:36:55.821Z,4.95
2018-05-27T10:39:24.117Z,4.18
2018-05-27T10:41:52.333Z,4.12
2018-05-27T10:44:19.788Z,4.10
2018-05-27T10:46:47.495Z,3.97
2018-05-27T10:49:14.971Z,5.20
2018-05-27T10:51:43.319Z,4.40
2018-05-27T10:54:10.751Z,4.00
2018-05-27T10:56:38.204Z,3.78
2018-05-27T10:59:05.659Z,4.15
2018-05-27T11:01:33.362Z,3.95
2018-05-27T11:04:00.810Z,4.32
2018-05-27T11:06:28.259Z,4.43
2018-05-27T11:08:55.705Z,3.83
2018-05-27T11:11:23.924Z,4.50
2018-05-27T11:13:52.151Z,5.07
2018-05-27T11:16:20.347Z,4.00
2018-05-27T11:18:47.800Z,3.55
2018-05-27T11:21:15.258Z,3.80
2018-05-27T11:23:43.468Z,3.70
2018-05-27T11:26:10.916Z,3.20
2018-05-27T11:28:38.370Z,3.72
2018-05-27T11:31:05.809Z,3.47
2018-05-27T11:33:34.756Z,3.92
2018-05-27T11:36:02.230Z,4.15
2018-05-27T11:38:29.688Z,4.45
2018-05-27T11:40:57.141Z,4.18
2018-05-27T11:43:24.581Z,4.05
2018-05-27T11:45:52.025Z,5.80
2018-05-27T11:48:19.479Z,3.80
2018-05-27T11:50:46.979Z,4.12
2018-05-27T11:53:14.476Z,4.20
2018-05-27T11:55:42.837Z,3.90
2018-05-27T11:58:11.483Z,4.28
2018-05-27T12:00:38.939Z,3.97
2018-05-27T12:03:06.692Z,4.03
2018-05-27T12:05:35.591Z,4.70
2018-05-27T12:08:03.658Z,4.12
2018-05-27T12:10:31.866Z,4.18
2018-05-27T12:12:59.319Z,4.57
2018-05-27T12:15:27.888Z,4.93
2018-05-27T12:18:01.148Z,5.62
2018-05-27T12:20:28.627Z,4.22
2018-05-27T12:22:56.841Z,4.40
2018-05-27T12:25:24.278Z,5.35
2018-05-27T12:27:52.499Z,3.97
2018-05-27T12:30:19.948Z,5.22
2018-05-27T12:32:47.403Z,4.28
2018-05-27T12:35:14.845Z,3.92
2018-05-27T12:37:42.285Z,3.95
2018-05-27T12:40:09.736Z,3.87
2018-05-27T12:42:37.171Z,3.92
2018-05-27T12:45:04.616Z,3.83
2018-05-27T12:47:32.057Z,4.07
2018-05-27T12:52:33.355Z,4.30
2018-05-27T12:55:01.153Z,4.03
2018-05-27T12:57:28.595Z,4.30
2018-05-27T12:59:56.131Z,4.47
2018-05-27T13:02:23.576Z,4.20
2018-05-27T13:04:51.007Z,4.55
2018-05-27T13:07:19.206Z,4.07
2018-05-27T13:09:46.669Z,3.85
2018-05-27T13:12:14.890Z,4.72
2018-05-27T13:14:42.352Z,4.10
2018-05-27T13:17:10.319Z,4.07
2018-05-27T13:19:37.746Z,4.35
2018-05-27T13:22:06.199Z,3.90
2018-05-27T13:24:33.656Z,3.92
2018-05-27T13:27:01.119Z,4.32
2018-05-27T13:29:29.387Z,4.50
2018-05-27T13:31:58.748Z,3.95
2018-05-27T13:34:26.175Z,4.30
2018-05-27T13:36:54.391Z,4.37
2018-05-27T13:39:23.583Z,4.95
2018-05-27T13:41:51.796Z,4.05
2018-05-27T13:44:19.236Z,4.43
2018-05-27T13:46:47.451Z,4.45
2018-05-27T13:49:14.933Z,3.97
2018-05-27T13:51:42.486Z,4.00
2018-05-27T13:54:09.922Z,4.15
2018-05-27T13:56:37.376Z,4.62
2018-05-27T13:59:04.871Z,5.10
2018-05-27T14:01:32.302Z,4.95
2018-05-27T14:04:00.553Z,4.57
2018-05-27T14:06:27.999Z,5.68
2018-05-27T14:08:55.452Z,5.12
2018-05-27T14:11:22.905Z,5.20
2018-05-27T14:13:51.111Z,5.00
2018-05-27T14:16:18.556Z,5.53
2018-05-27T14:18:46.011Z,5.30
2018-05-27T14:21:14.230Z,5.20
2018-05-27T14:23:41.684Z,5.30
2018-05-27T14:26:09.158Z,5.47
2018-05-27T14:28:36.642Z,5.63
2018-05-27T14:31:04.074Z,5.35
2018-05-27T14:33:31.541Z,5.30
2018-05-27T14:35:59.060Z,5.53
2018-05-27T14:38:27.484Z,5.82
2018-05-27T14:40:54.964Z,7.55
2018-05-27T14:43:22.392Z,5.85
2018-05-27T14:45:50.869Z,6.03
2018-05-27T14:48:19.401Z,6.35
2018-05-27T14:50:46.831Z,6.32
2018-05-27T14:53:14.288Z,4.75
2018-05-27T14:55:41.732Z,5.95
2018-05-27T14:58:09.176Z,7.28
2018-05-27T15:00:36.619Z,7.57
2018-05-27T15:03:04.832Z,7.72
2018-05-27T15:05:32.306Z,10.20
2018-05-27T15:07:59.751Z,7.95
2018-05-27T15:10:27.224Z,7.72
2018-05-27T15:12:54.677Z,8.73
2018-05-27T15:15:22.125Z,7.72
2018-05-27T15:17:49.601Z,7.70
2018-05-27T15:20:17.032Z,8.48
2018-05-27T15:22:44.512Z,8.00
2018-05-27T15:25:12.016Z,8.15
2018-05-27T15:27:40.171Z,7.25
2018-05-27T15:30:07.611Z,6.07
2018-05-27T15:32:35.059Z,5.40
2018-05-27T15:35:02.539Z,5.25
2018-05-27T15:37:30.000Z,5.55
2018-05-27T15:39:57.440Z,5.45
2018-05-27T15:42:24.901Z,5.50
2018-05-27T15:44:52.487Z,7.40
2018-05-27T15:47:20.722Z,7.50
2018-05-27T15:49:48.157Z,6.12
2018-05-27T15:52:15.606Z,6.10
2018-05-27T15:54:43.070Z,5.93
2018-05-27T15:57:10.529Z,6.28
2018-05-27T15:59:37.979Z,9.65
2018-05-27T16:02:05.432Z,6.32
2018-05-27T16:04:32.935Z,5.30
2018-05-27T16:07:00.403Z,5.82
2018-05-27T16:09:28.863Z,4.90
2018-05-27T16:11:56.317Z,6.65
2018-05-27T16:14:23.750Z,7.00
2018-05-27T16:16:51.302Z,6.25
2018-05-27T16:19:18.805Z,6.57
2018-05-27T16:21:46.257Z,6.72
2018-05-27T16:24:13.703Z,5.18
2018-05-27T16:26:41.155Z,7.90
2018-05-27T16:29:08.624Z,5.85
2018-05-27T16:31:36.066Z,5.55
2018-05-27T16:34:03.520Z,9.27
2018-05-27T16:36:30.960Z,6.35
2018-05-27T16:38:59.165Z,6.07
2018-05-27T16:41:26.662Z,8.00
2018-05-27T16:43:54.063Z,7.03
2018-05-27T16:46:22.309Z,6.95
2018-05-27T16:48:49.760Z,8.30
2018-05-27T16:51:17.208Z,7.20
2018-05-27T16:53:44.665Z,8.05
2018-05-27T16:56:12.239Z,8.23
2018-05-27T17:00:16.911Z,7.20
2018-05-27T17:02:44.323Z,7.80
2018-05-27T17:05:12.046Z,7.40
2018-05-27T17:07:40.248Z,6.95
2018-05-27T17:10:07.696Z,8.43
2018-05-27T17:12:35.916Z,6.57
2018-05-27T17:15:03.356Z,8.45
2018-05-27T17:17:30.799Z,9.60
2018-05-27T17:19:58.388Z,7.30
2018-05-27T17:22:25.833Z,6.67
2018-05-27T17:24:53.264Z,6.50
2018-05-27T17:27:21.483Z,7.27
2018-05-27T17:29:48.952Z,7.87
2018-05-27T17:32:16.413Z,7.33
2018-05-27T17:34:43.962Z,7.30
2018-05-27T17:37:11.412Z,7.57
2018-05-27T17:39:38.848Z,7.20
2018-05-27T17:42:07.060Z,7.33
2018-05-27T17:44:34.510Z,6.70
2018-05-27T17:47:02.085Z,6.80
2018-05-27T17:49:29.552Z,9.03
2018-05-27T17:51:56.964Z,7.80
2018-05-27T17:54:24.801Z,7.50
2018-05-27T17:56:52.266Z,7.70
2018-05-27T17:59:19.694Z,6.93
2018-05-27T18:01:47.127Z,6.83
2018-05-27T18:04:15.356Z,7.23
2018-05-27T18:06:42.773Z,7.30
2018-05-27T18:09:11.003Z,6.93
2018-05-27T18:11:38.462Z,8.00
2018-05-27T18:14:05.990Z,7.30
2018-05-27T18:16:34.178Z,7.70
2018-05-27T18:19:01.617Z,8.20
2018-05-27T18:21:29.308Z,7.13
2018-05-27T18:23:56.740Z,6.87
2018-05-27T18:26:24.188Z,7.77
2018-05-27T18:28:52.383Z,7.10
2018-05-27T18:31:19.816Z,9.13
2018-05-27T18:33:48.046Z,7.00
2018-05-27T18:36:15.495Z,7.63
2018-05-27T18:38:42.960Z,6.87
2018-05-27T18:41:10.474Z,7.90
2018-05-27T18:43:37.912Z,8.00
2018-05-27T18:46:05.368Z,7.90
2018-05-27T18:48:32.834Z,7.80
2018-05-27T18:51:00.303Z,9.37
2018-05-27T18:53:27.770Z,9.03
2018-05-27T18:55:55.197Z,8.63
2018-05-27T18:58:22.671Z,8.10
2018-05-27T19:00:50.211Z,8.13
2018-05-27T19:03:17.653Z,7.70
2018-05-27T19:05:45.179Z,8.27
2018-05-27T19:08:12.784Z,8.40
2018-05-27T19:10:40.406Z,7.90
2018-05-27T19:13:07.904Z,8.07
2018-05-27T19:15:35.516Z,8.70
2018-05-27T19:18:04.251Z,9.20
2018-05-27T19:20:32.466Z,8.37
2018-05-27T19:22:59.911Z,8.07
2018-05-27T19:25:27.423Z,8.47
2018-05-27T19:27:54.894Z,8.33
2018-05-27T19:30:22.358Z,8.30
2018-05-27T19:32:50.609Z,8.90
2018-05-27T19:35:18.081Z,9.00
2018-05-27T19:37:45.540Z,9.00
2018-05-27T19:40:12.993Z,8.53
2018-05-27T19:42:40.558Z,11.77
2018-05-27T19:45:08.027Z,9.20
2018-05-27T19:47:35.472Z,9.20
2018-05-27T19:50:02.946Z,9.10
2018-05-27T19:52:30.379Z,9.07
2018-05-27T19:54:59.404Z,9.53
2018-05-27T19:57:26.856Z,9.20
2018-05-27T19:59:54.303Z,8.97
2018-05-27T20:02:21.748Z,8.87
2018-05-27T20:04:49.532Z,9.63
2018-05-27T20:07:16.975Z,8.50
2018-05-27T20:09:44.421Z,9.30
2018-05-27T20:12:11.964Z,11.17
2018-05-27T20:14:40.183Z,9.37
2018-05-27T20:17:07.617Z,9.70
2018-05-27T20:19:35.322Z,9.27
2018-05-27T20:22:02.772Z,8.40
2018-05-27T20:24:30.312Z,9.60
2018-05-27T20:26:57.980Z,10.00
2018-05-27T20:29:25.427Z,9.40
2018-05-27T20:31:52.871Z,9.43
2018-05-27T20:34:21.236Z,9.40
2018-05-27T20:36:48.698Z,11.80
2018-05-27T20:39:16.189Z,10.07
2018-05-27T20:41:44.145Z,10.70
2018-05-27T20:44:12.356Z,9.50
2018-05-27T20:46:39.796Z,9.70
2018-05-27T20:49:07.259Z,10.60
2018-05-27T20:51:34.700Z,9.40
2018-05-27T20:54:02.910Z,10.03
2018-05-27T20:56:30.420Z,9.97
2018-05-27T20:58:57.889Z,9.53
2018-05-27T21:01:25.364Z,12.37
2018-05-27T21:03:53.592Z,9.67
2018-05-27T21:06:21.033Z,9.10
2018-05-27T21:08:48.460Z,9.93
2018-05-27T21:11:16.710Z,9.83
2018-05-27T21:13:44.107Z,9.67
2018-05-27T21:16:12.321Z,11.57
2018-05-27T21:18:39.928Z,9.20
2018-05-27T21:21:07.375Z,10.40
2018-05-27T21:23:34.846Z,9.50
2018-05-27T21:26:02.324Z,10.20
2018-05-27T21:28:30.692Z,10.20
2018-05-27T21:30:58.167Z,10.03
2018-05-27T21:33:26.374Z,10.60
2018-05-27T21:35:53.841Z,11.47
2018-05-27T21:38:21.293Z,11.10
2018-05-27T21:40:48.714Z,10.23
2018-05-27T21:43:16.171Z,10.00
2018-05-27T21:45:45.373Z,10.73
2018-05-27T21:48:13.656Z,10.67
2018-05-27T21:50:41.124Z,9.47
2018-05-27T21:53:09.328Z,11.17
2018-05-27T21:55:36.768Z,10.57
2018-05-27T21:58:05.000Z,12.53
2018-05-27T22:00:32.431Z,11.23
2018-05-27T22:02:59.888Z,11.30
2018-05-27T22:05:27.328Z,10.87
2018-05-27T22:07:54.772Z,11.00
2018-05-27T22:10:22.368Z,11.10
2018-05-27T22:12:49.845Z,11.23
2018-05-27T22:15:17.315Z,12.23
2018-05-27T22:17:44.817Z,11.73
2018-05-27T22:20:12.260Z,12.63
2018-05-27T22:22:39.706Z,12.83
2018-05-27T22:25:07.919Z,11.57
2018-05-27T22:27:35.385Z,12.37
2018-05-27T22:30:02.829Z,13.00
2018-05-27T22:32:30.277Z,12.27
2018-05-27T22:34:58.735Z,12.47
2018-05-27T22:37:26.194Z,13.13
2018-05-27T22:39:53.629Z,12.67
2018-05-27T22:42:21.842Z,12.17
2018-05-27T22:44:49.574Z,12.80
2018-05-27T22:47:17.811Z,13.73
2018-05-27T22:49:45.248Z,13.17
2018-05-27T22:52:12.712Z,13.47
2018-05-27T22:54:40.155Z,13.80
2018-05-27T22:57:07.591Z,14.13
2018-05-27T22:59:35.813Z,15.13
2018-05-27T23:02:04.021Z,13.13
2018-05-27T23:04:31.470Z,14.13
2018-05-27T23:06:58.952Z,13.50
2018-05-27T23:09:27.181Z,13.70
2018-05-27T23:11:54.635Z,14.13
2018-05-27T23:14:22.123Z,14.07
2018-05-27T23:16:49.592Z,13.70
2018-05-27T23:19:17.040Z,13.80
2018-05-27T23:21:44.487Z,13.97
2018-05-27T23:24:11.945Z,14.57
2018-05-27T23:26:39.663Z,14.73
2018-05-27T23:29:07.868Z,13.73
2018-05-27T23:31:35.348Z,14.87
2018-05-27T23:34:03.025Z,14.30
2018-05-27T23:36:30.478Z,14.13
2018-05-27T23:38:57.914Z,12.73
2018-05-27T23:41:25.360Z,13.53
2018-05-27T23:43:53.563Z,13.40
2018-05-27T23:46:21.022Z,13.17
2018-05-27T23:48:48.475Z,13.30
2018-05-27T23:51:16.071Z,13.37
2018-05-27T23:53:43.519Z,12.30
2018-05-27T23:56:11.914Z,12.83
2018-05-27T23:58:39.623Z,14.10
